createdAt,value
2019-02-19T00:00:05.410Z,3.40
2019-02-19T00:02:34.859Z,3.40
2019-02-19T00:05:04.492Z,3.40
2019-02-19T00:07:33.936Z,3.40
2019-02-19T00:10:03.361Z,3.40
2019-02-19T00:12:32.837Z,3.40
2019-02-19T00:15:07.855Z,3.40
2019-02-19T00:17:33.367Z,3.30
2019-02-19T00:20:02.810Z,3.30
2019-02-19T00:22:32.283Z,3.30
2019-02-19T00:25:01.755Z,3.30
2019-02-19T00:27:31.203Z,3.30
2019-02-19T00:30:00.621Z,3.20
2019-02-19T00:32:30.081Z,3.20
2019-02-19T00:34:59.577Z,3.20
2019-02-19T00:37:29.020Z,3.20
2019-02-19T00:39:58.448Z,3.20
2019-02-19T00:42:27.915Z,3.20
2019-02-19T00:44:57.337Z,3.20
2019-02-19T00:47:26.826Z,3.20
2019-02-19T00:49:56.240Z,3.20
2019-02-19T00:52:25.721Z,3.10
2019-02-19T00:54:55.209Z,3.10
2019-02-19T00:57:24.715Z,3.10
2019-02-19T00:59:54.165Z,3.10
2019-02-19T01:02:23.580Z,3.10
2019-02-19T01:04:53.047Z,3.00
2019-02-19T01:07:22.477Z,3.00
2019-02-19T01:09:51.929Z,3.00
2019-02-19T01:12:21.611Z,3.00
2019-02-19T01:14:51.080Z,3.00
2019-02-19T01:17:20.582Z,2.90
2019-02-19T01:19:50.038Z,2.90
2019-02-19T01:22:19.467Z,2.90
2019-02-19T01:24:48.952Z,2.90
2019-02-19T01:27:18.379Z,2.90
2019-02-19T01:29:47.836Z,2.80
2019-02-19T01:32:17.258Z,2.70
2019-02-19T01:34:46.719Z,2.80
2019-02-19T01:37:16.148Z,2.80
2019-02-19T01:39:45.732Z,2.80
2019-02-19T01:42:15.270Z,2.80
2019-02-19T01:44:44.720Z,2.80
2019-02-19T01:47:14.148Z,2.70
2019-02-19T01:49:43.617Z,2.70
2019-02-19T01:52:13.238Z,2.70
2019-02-19T01:54:42.689Z,2.70
2019-02-19T01:57:12.120Z,2.60
2019-02-19T01:59:41.565Z,2.70
2019-02-19T02:02:10.984Z,2.70
2019-02-19T02:04:40.438Z,2.70
2019-02-19T02:07:09.859Z,2.70
2019-02-19T02:09:39.313Z,2.70
2019-02-19T02:12:08.779Z,2.60
2019-02-19T02:14:38.250Z,2.60
2019-02-19T02:17:07.665Z,2.60
2019-02-19T02:19:37.119Z,2.60
2019-02-19T02:22:06.540Z,2.60
2019-02-19T02:24:36.021Z,2.70
2019-02-19T02:27:05.432Z,2.60
2019-02-19T02:29:35.004Z,2.60
2019-02-19T02:32:04.419Z,2.60
2019-02-19T02:34:33.982Z,2.60
2019-02-19T02:37:03.428Z,2.60
2019-02-19T02:39:32.860Z,2.60
2019-02-19T02:42:02.286Z,2.60
2019-02-19T02:44:31.769Z,2.60
2019-02-19T02:47:01.256Z,2.50
2019-02-19T02:49:30.704Z,2.50
2019-02-19T02:52:00.157Z,2.50
2019-02-19T02:54:29.635Z,2.40
2019-02-19T02:56:59.061Z,2.40
2019-02-19T02:59:28.519Z,2.50
2019-02-19T03:01:57.954Z,2.50
2019-02-19T03:04:27.394Z,2.50
2019-02-19T03:07:11.462Z,2.50
2019-02-19T03:09:40.926Z,2.40
2019-02-19T03:12:10.357Z,2.50
2019-02-19T03:14:39.818Z,2.50
2019-02-19T03:17:09.317Z,2.40
2019-02-19T03:19:38.763Z,2.40
2019-02-19T03:22:08.204Z,2.40
2019-02-19T03:24:37.688Z,2.40
2019-02-19T03:27:07.142Z,2.40
2019-02-19T03:29:36.597Z,2.40
2019-02-19T03:32:06.161Z,2.40
2019-02-19T03:34:35.746Z,2.40
2019-02-19T03:37:05.212Z,2.40
2019-02-19T03:39:34.671Z,2.30
2019-02-19T03:42:04.124Z,2.30
2019-02-19T03:44:33.581Z,2.30
2019-02-19T03:47:03.010Z,2.30
2019-02-19T03:49:32.460Z,2.30
2019-02-19T03:52:01.913Z,2.30
2019-02-19T03:54:31.519Z,2.30
2019-02-19T03:57:01.149Z,2.30
2019-02-19T03:59:30.911Z,2.30
2019-02-19T04:02:00.357Z,2.30
2019-02-19T04:04:29.810Z,2.20
2019-02-19T04:06:59.230Z,2.20
2019-02-19T04:09:28.644Z,2.20
2019-02-19T04:11:58.099Z,2.20
2019-02-19T04:14:27.527Z,2.20
2019-02-19T04:16:56.986Z,2.20
2019-02-19T04:19:26.414Z,2.10
2019-02-19T04:21:55.871Z,2.20
2019-02-19T04:24:25.348Z,2.10
2019-02-19T04:26:54.817Z,2.10
2019-02-19T04:29:24.306Z,2.10
2019-02-19T04:31:53.794Z,2.10
2019-02-19T04:34:23.216Z,2.10
2019-02-19T04:36:52.687Z,2.10
2019-02-19T04:39:22.128Z,2.00
2019-02-19T04:41:51.580Z,2.00
2019-02-19T04:44:21.012Z,1.90
2019-02-19T04:46:50.455Z,1.90
2019-02-19T04:49:19.888Z,1.90
2019-02-19T04:51:49.377Z,1.90
2019-02-19T04:54:18.802Z,1.90
2019-02-19T04:56:48.295Z,1.90
2019-02-19T04:59:17.725Z,1.90
2019-02-19T05:01:47.184Z,1.90
2019-02-19T05:04:16.612Z,1.90
2019-02-19T05:06:46.138Z,1.90
2019-02-19T05:09:15.722Z,1.90
2019-02-19T05:11:45.200Z,1.90
2019-02-19T05:14:14.641Z,1.90
2019-02-19T05:16:44.112Z,1.80
2019-02-19T05:19:13.545Z,1.80
2019-02-19T05:21:43.009Z,1.80
2019-02-19T05:24:12.452Z,1.80
2019-02-19T05:26:41.913Z,1.80
2019-02-19T05:29:11.536Z,1.80
2019-02-19T05:31:40.992Z,1.80
2019-02-19T05:34:10.467Z,1.80
2019-02-19T05:36:39.920Z,1.50
2019-02-19T05:39:09.584Z,1.30
2019-02-19T05:41:39.209Z,1.40
2019-02-19T05:44:08.689Z,1.50
2019-02-19T05:46:38.158Z,1.50
2019-02-19T05:49:07.778Z,1.60
2019-02-19T05:51:37.318Z,1.50
2019-02-19T05:54:06.671Z,1.60
2019-02-19T05:56:36.251Z,1.50
2019-02-19T05:59:05.718Z,1.60
2019-02-19T06:01:35.280Z,1.50
2019-02-19T06:04:04.803Z,1.40
2019-02-19T06:06:34.261Z,1.60
2019-02-19T06:09:04.889Z,1.60
2019-02-19T06:11:34.285Z,1.60
2019-02-19T06:14:03.790Z,1.50
2019-02-19T06:16:33.446Z,1.40
2019-02-19T06:19:02.982Z,1.40
2019-02-19T06:21:32.756Z,1.40
2019-02-19T06:24:02.188Z,1.40
2019-02-19T06:26:31.791Z,1.40
2019-02-19T06:29:01.453Z,1.40
2019-02-19T06:31:31.018Z,1.40
2019-02-19T06:34:00.531Z,1.40
2019-02-19T06:36:30.016Z,1.40
2019-02-19T06:38:59.594Z,1.40
2019-02-19T06:41:29.182Z,1.40
2019-02-19T06:43:58.678Z,1.40
2019-02-19T06:46:28.214Z,1.60
2019-02-19T06:48:57.781Z,1.80
2019-02-19T06:51:27.392Z,1.80
2019-02-19T06:53:56.851Z,1.90
2019-02-19T06:56:26.320Z,2.10
2019-02-19T06:58:56.089Z,2.20
2019-02-19T07:01:49.145Z,2.40
2019-02-19T07:04:28.285Z,2.70
2019-02-19T07:06:57.820Z,2.90
2019-02-19T07:09:27.296Z,2.90
2019-02-19T07:11:56.805Z,3.40
2019-02-19T07:14:26.226Z,3.40
2019-02-19T07:16:55.672Z,3.50
2019-02-19T07:19:25.116Z,3.70
2019-02-19T07:21:54.567Z,4.00
2019-02-19T07:24:24.003Z,4.20
2019-02-19T07:26:53.568Z,4.10
2019-02-19T07:29:23.004Z,4.20
2019-02-19T07:31:52.472Z,4.60
2019-02-19T07:34:21.897Z,4.30
2019-02-19T07:36:51.392Z,3.80
2019-02-19T07:39:20.845Z,3.50
2019-02-19T07:41:50.323Z,3.40
2019-02-19T07:44:19.743Z,3.90
2019-02-19T07:46:49.220Z,4.40
2019-02-19T07:49:18.675Z,4.50
2019-02-19T07:51:48.134Z,4.50
2019-02-19T07:54:17.593Z,4.20
2019-02-19T07:56:47.009Z,4.00
2019-02-19T07:59:16.488Z,4.00
2019-02-19T08:01:45.990Z,4.00
2019-02-19T08:04:15.441Z,4.20
2019-02-19T08:06:44.874Z,4.20
2019-02-19T08:09:14.334Z,4.10
2019-02-19T08:11:43.757Z,4.20
2019-02-19T08:14:13.216Z,4.20
2019-02-19T08:16:42.648Z,4.20
2019-02-19T08:19:12.172Z,4.50
2019-02-19T08:21:41.598Z,4.50
2019-02-19T08:24:12.380Z,4.60
2019-02-19T08:26:41.821Z,4.50
2019-02-19T08:29:14.033Z,4.60
2019-02-19T08:31:43.644Z,4.80
2019-02-19T08:34:13.080Z,4.70
2019-02-19T08:36:42.524Z,5.30
2019-02-19T08:39:11.973Z,5.20
2019-02-19T08:41:41.396Z,5.00
2019-02-19T08:44:10.844Z,5.20
2019-02-19T08:46:40.272Z,5.80
2019-02-19T08:49:09.726Z,5.90
2019-02-19T08:51:39.153Z,6.40
2019-02-19T08:54:08.655Z,6.80
2019-02-19T08:56:38.180Z,7.10
2019-02-19T08:59:07.622Z,7.60
2019-02-19T09:01:37.028Z,7.00
2019-02-19T09:04:06.480Z,7.80
2019-02-19T09:06:35.902Z,7.10
2019-02-19T09:09:07.106Z,7.20
2019-02-19T09:11:37.538Z,7.30
2019-02-19T09:14:07.024Z,7.60
2019-02-19T09:16:36.469Z,7.80
2019-02-19T09:19:05.930Z,8.30
2019-02-19T09:21:35.346Z,9.40
2019-02-19T09:24:09.394Z,8.50
2019-02-19T09:26:36.100Z,8.80
2019-02-19T09:29:05.655Z,8.30
2019-02-19T09:31:35.096Z,9.00
2019-02-19T09:34:04.589Z,8.90
2019-02-19T09:36:34.048Z,8.20
2019-02-19T09:39:04.970Z,8.40
2019-02-19T09:41:34.417Z,8.50
2019-02-19T09:44:03.953Z,8.30
2019-02-19T09:46:33.409Z,8.90
2019-02-19T09:49:02.870Z,10.10
2019-02-19T09:51:32.719Z,8.90
2019-02-19T09:54:02.229Z,9.80
2019-02-19T09:56:31.683Z,9.00
2019-02-19T09:59:02.272Z,8.80
2019-02-19T10:01:31.698Z,10.50
2019-02-19T10:04:01.152Z,9.80
2019-02-19T10:06:30.587Z,8.90
2019-02-19T10:09:00.050Z,8.60
2019-02-19T10:11:29.468Z,8.50
2019-02-19T10:13:58.929Z,8.50
2019-02-19T10:16:28.361Z,8.70
2019-02-19T10:18:57.808Z,9.80
2019-02-19T10:21:27.239Z,8.80
2019-02-19T10:23:56.650Z,9.50
2019-02-19T10:26:26.104Z,9.10
2019-02-19T10:28:55.545Z,9.60
2019-02-19T10:31:25.040Z,9.10
2019-02-19T10:33:54.468Z,9.30
2019-02-19T10:36:23.960Z,9.10
2019-02-19T10:38:53.394Z,9.40
2019-02-19T10:41:22.849Z,9.40
2019-02-19T10:43:52.273Z,9.40
2019-02-19T10:46:21.723Z,9.00
2019-02-19T10:48:51.139Z,9.50
2019-02-19T10:51:20.583Z,9.70
2019-02-19T10:53:50.058Z,9.50
2019-02-19T10:56:19.512Z,10.10
2019-02-19T10:58:49.027Z,10.40
2019-02-19T11:01:18.473Z,10.20
2019-02-19T11:03:47.944Z,10.50
2019-02-19T11:06:17.397Z,10.60
2019-02-19T11:08:46.816Z,10.10
2019-02-19T11:11:16.258Z,10.50
2019-02-19T11:13:45.802Z,10.50
2019-02-19T11:16:15.248Z,10.50
2019-02-19T11:18:44.665Z,11.00
2019-02-19T11:21:19.558Z,10.70
2019-02-19T11:23:45.200Z,9.90
2019-02-19T11:26:14.635Z,9.20
2019-02-19T11:28:44.066Z,10.10
2019-02-19T11:31:13.520Z,10.30
2019-02-19T11:33:42.951Z,10.40
2019-02-19T11:36:12.457Z,10.60
2019-02-19T11:38:41.885Z,10.10
2019-02-19T11:41:11.322Z,10.40
2019-02-19T11:43:40.800Z,10.40
2019-02-19T11:46:10.217Z,9.70
2019-02-19T11:48:39.677Z,10.20
2019-02-19T11:51:09.150Z,10.10
2019-02-19T11:53:38.649Z,9.90
2019-02-19T11:56:08.159Z,9.60
2019-02-19T11:58:37.602Z,9.00
2019-02-19T12:01:07.124Z,9.00
2019-02-19T12:03:36.576Z,9.00
2019-02-19T12:06:05.987Z,9.50
2019-02-19T12:08:39.036Z,10.00
2019-02-19T12:11:06.529Z,10.70
2019-02-19T12:13:35.999Z,10.50
2019-02-19T12:16:05.450Z,10.40
2019-02-19T12:18:34.943Z,10.30
2019-02-19T12:21:04.358Z,9.70
2019-02-19T12:23:33.896Z,10.10
2019-02-19T12:26:03.481Z,11.30
2019-02-19T12:28:33.058Z,11.60
2019-02-19T12:31:02.486Z,11.80
2019-02-19T12:33:31.983Z,12.00
2019-02-19T12:36:01.420Z,11.90
2019-02-19T12:38:30.868Z,11.90
2019-02-19T12:41:00.376Z,11.90
2019-02-19T12:43:29.868Z,12.10
2019-02-19T12:45:59.349Z,12.10
2019-02-19T12:48:28.833Z,12.30
2019-02-19T12:50:58.366Z,12.10
2019-02-19T12:53:28.793Z,12.50
2019-02-19T12:55:58.217Z,12.50
2019-02-19T12:58:27.718Z,12.60
2019-02-19T13:00:57.136Z,12.50
2019-02-19T13:03:26.695Z,13.10
2019-02-19T13:05:56.123Z,13.30
2019-02-19T13:08:25.582Z,13.40
2019-02-19T13:10:55.014Z,13.50
2019-02-19T13:13:24.494Z,13.20
2019-02-19T13:15:53.918Z,13.20
2019-02-19T13:18:24.020Z,13.30
2019-02-19T13:20:53.453Z,13.20
2019-02-19T13:23:23.031Z,13.10
2019-02-19T13:25:52.514Z,12.90
2019-02-19T13:28:21.993Z,13.50
2019-02-19T13:30:51.495Z,13.10
2019-02-19T13:33:22.058Z,13.00
2019-02-19T13:35:51.483Z,13.10
2019-02-19T13:38:20.938Z,13.00
2019-02-19T13:40:50.464Z,12.90
2019-02-19T13:43:19.973Z,12.90
2019-02-19T13:45:49.692Z,13.10
2019-02-19T13:48:19.222Z,13.40
2019-02-19T13:50:48.818Z,13.20
2019-02-19T13:53:29.722Z,13.30
2019-02-19T13:56:01.358Z,13.20
2019-02-19T13:58:31.055Z,13.10
2019-02-19T14:01:01.067Z,13.40
2019-02-19T14:03:31.089Z,13.50
2019-02-19T14:06:02.077Z,13.20
2019-02-19T14:08:31.668Z,13.20
2019-02-19T14:11:01.681Z,13.00
2019-02-19T14:13:31.170Z,13.20
2019-02-19T14:16:14.924Z,12.80
2019-02-19T14:18:55.182Z,13.30
2019-02-19T14:21:49.844Z,13.20
2019-02-19T14:24:38.340Z,12.90
2019-02-19T14:27:32.930Z,12.90
2019-02-19T14:30:20.240Z,13.00
2019-02-19T14:33:13.522Z,13.20
2019-02-19T14:36:13.891Z,13.00
2019-02-19T14:39:01.008Z,12.90
2019-02-19T14:41:44.204Z,12.90
2019-02-19T14:44:35.422Z,12.90
2019-02-19T14:47:42.204Z,12.80
2019-02-19T14:50:29.485Z,12.70
2019-02-19T14:53:13.342Z,12.50
2019-02-19T14:56:07.232Z,12.70
2019-02-19T14:59:14.084Z,12.60
2019-02-19T15:02:16.198Z,12.60
2019-02-19T15:05:05.838Z,12.70
2019-02-19T15:08:12.821Z,12.60
2019-02-19T15:11:19.606Z,12.60
2019-02-19T15:14:06.652Z,13.10
2019-02-19T15:16:54.077Z,12.80
2019-02-19T15:19:40.949Z,12.70
2019-02-19T15:22:38.615Z,12.40
2019-02-19T15:25:29.629Z,12.50
2019-02-19T15:28:27.372Z,12.60
2019-02-19T15:31:15.777Z,12.70
2019-02-19T15:34:19.393Z,12.50
2019-02-19T15:37:07.732Z,12.50
2019-02-19T15:39:55.682Z,12.50
2019-02-19T15:42:36.498Z,12.30
2019-02-19T15:45:14.002Z,12.40
2019-02-19T15:48:01.127Z,12.50
2019-02-19T15:51:07.635Z,12.50
2019-02-19T15:54:11.192Z,12.50
2019-02-19T15:56:56.097Z,12.50
2019-02-19T15:59:49.231Z,12.40
2019-02-19T16:02:36.558Z,12.30
2019-02-19T16:05:34.391Z,12.20
2019-02-19T16:08:23.802Z,12.20
2019-02-19T16:11:03.529Z,12.20
2019-02-19T16:13:40.440Z,12.20
2019-02-19T16:16:27.757Z,12.20
2019-02-19T16:19:19.385Z,12.30
2019-02-19T16:21:57.614Z,12.10
2019-02-19T16:24:45.237Z,12.00
2019-02-19T16:27:52.063Z,12.00
2019-02-19T16:30:37.150Z,12.00
2019-02-19T16:33:34.817Z,12.00
2019-02-19T16:36:19.452Z,11.90
2019-02-19T16:38:56.298Z,11.90
2019-02-19T16:41:47.445Z,11.90
2019-02-19T16:44:28.663Z,11.90
2019-02-19T16:47:19.869Z,12.00
2019-02-19T16:50:26.823Z,11.90
2019-02-19T16:53:24.521Z,11.80
2019-02-19T16:56:12.898Z,11.80
2019-02-19T16:59:07.422Z,11.70
2019-02-19T17:01:53.299Z,11.70
2019-02-19T17:04:53.951Z,11.70
2019-02-19T17:07:32.854Z,11.70
2019-02-19T17:10:14.942Z,11.70
2019-02-19T17:12:53.235Z,11.70
2019-02-19T17:15:42.941Z,11.60
2019-02-19T17:18:40.334Z,11.60
2019-02-19T17:21:31.471Z,11.50
2019-02-19T17:24:07.199Z,11.50
2019-02-19T17:27:04.677Z,11.50
2019-02-19T17:30:05.566Z,11.40
2019-02-19T17:32:53.986Z,11.50
2019-02-19T17:35:45.312Z,11.40
2019-02-19T17:38:36.337Z,11.40
2019-02-19T17:41:20.700Z,11.30
2019-02-19T17:44:05.357Z,11.40
2019-02-19T17:46:59.999Z,11.30
2019-02-19T17:49:41.832Z,11.20
2019-02-19T17:52:37.842Z,11.20
2019-02-19T17:55:20.970Z,11.20
2019-02-19T17:58:14.740Z,11.20
2019-02-19T18:01:18.250Z,11.10
2019-02-19T18:04:05.583Z,11.10
2019-02-19T18:06:53.968Z,11.10
2019-02-19T18:09:30.729Z,11.10
2019-02-19T18:12:05.379Z,11.10
2019-02-19T18:14:59.799Z,11.00
2019-02-19T18:18:03.638Z,10.90
2019-02-19T18:20:33.153Z,10.90
2019-02-19T18:23:02.598Z,10.90
2019-02-19T18:25:32.045Z,10.80
2019-02-19T18:28:01.469Z,10.60
2019-02-19T18:30:31.128Z,10.60
2019-02-19T18:33:00.562Z,10.60
2019-02-19T18:35:30.442Z,10.70
2019-02-19T18:37:59.856Z,10.70
2019-02-19T18:40:29.515Z,10.70
2019-02-19T18:42:58.934Z,10.70
2019-02-19T18:45:28.378Z,10.70
2019-02-19T18:47:57.803Z,10.70
2019-02-19T18:50:27.245Z,10.70
2019-02-19T18:52:56.732Z,10.60
2019-02-19T18:55:26.320Z,10.60
2019-02-19T18:57:55.766Z,10.60
2019-02-19T19:00:25.239Z,10.50
2019-02-19T19:02:54.756Z,10.50
2019-02-19T19:05:24.189Z,10.50
2019-02-19T19:07:53.642Z,10.40
2019-02-19T19:10:25.198Z,10.50
2019-02-19T19:12:54.666Z,10.50
2019-02-19T19:15:24.148Z,10.50
2019-02-19T19:17:53.600Z,10.50
2019-02-19T19:20:23.029Z,10.40
2019-02-19T19:22:52.482Z,10.40
2019-02-19T19:25:21.979Z,10.40
2019-02-19T19:27:51.426Z,10.40
2019-02-19T19:30:20.866Z,10.40
2019-02-19T19:32:50.321Z,10.40
2019-02-19T19:35:19.760Z,10.40
2019-02-19T19:37:49.202Z,10.30
2019-02-19T19:40:18.645Z,10.30
2019-02-19T19:42:48.099Z,10.30
2019-02-19T19:45:17.519Z,10.30
2019-02-19T19:47:46.977Z,10.30
2019-02-19T19:50:16.400Z,10.30
2019-02-19T19:52:45.956Z,10.20
2019-02-19T19:55:15.376Z,10.20
2019-02-19T19:57:44.865Z,10.10
2019-02-19T20:00:14.306Z,10.20
2019-02-19T20:02:43.804Z,10.20
2019-02-19T20:05:13.238Z,10.20
2019-02-19T20:07:42.778Z,10.10
2019-02-19T20:10:12.350Z,10.10
2019-02-19T20:12:41.796Z,10.10
2019-02-19T20:15:11.549Z,10.10
2019-02-19T20:17:41.059Z,10.10
2019-02-19T20:20:10.488Z,10.00
2019-02-19T20:22:40.063Z,10.00
2019-02-19T20:25:10.229Z,10.00
2019-02-19T20:27:39.726Z,10.00
2019-02-19T20:30:10.522Z,10.00
2019-02-19T20:32:39.999Z,10.00
2019-02-19T20:35:09.835Z,9.90
2019-02-19T20:37:39.775Z,9.90
2019-02-19T20:40:10.920Z,9.90
2019-02-19T20:42:40.368Z,9.90
2019-02-19T20:45:10.078Z,9.90
2019-02-19T20:47:39.635Z,9.80
2019-02-19T20:50:09.833Z,9.90
2019-02-19T20:52:39.313Z,9.90
2019-02-19T20:55:09.385Z,9.80
2019-02-19T20:57:38.811Z,9.80
2019-02-19T21:00:11.869Z,9.80
2019-02-19T21:02:41.290Z,9.80
2019-02-19T21:05:11.076Z,9.70
2019-02-19T21:07:40.731Z,9.70
2019-02-19T21:10:12.773Z,9.70
2019-02-19T21:12:42.319Z,9.70
2019-02-19T21:15:13.691Z,9.70
2019-02-19T21:17:42.977Z,9.70
2019-02-19T21:20:12.560Z,9.60
2019-02-19T21:22:41.986Z,9.60
2019-02-19T21:25:11.711Z,9.60
2019-02-19T21:27:41.153Z,9.60
2019-02-19T21:30:12.375Z,9.60
2019-02-19T21:32:41.803Z,9.50
2019-02-19T21:35:11.475Z,9.60
2019-02-19T21:37:40.896Z,9.50
2019-02-19T21:40:10.637Z,9.50
2019-02-19T21:42:40.096Z,9.50
2019-02-19T21:45:09.952Z,9.50
2019-02-19T21:47:39.377Z,9.50
2019-02-19T21:50:09.220Z,9.50
2019-02-19T21:52:38.660Z,9.40
2019-02-19T21:55:08.353Z,9.50
2019-02-19T21:57:37.788Z,9.40
2019-02-19T22:00:08.314Z,9.40
2019-02-19T22:02:37.746Z,9.40
2019-02-19T22:05:07.530Z,9.30
2019-02-19T22:07:36.949Z,9.30
2019-02-19T22:10:06.564Z,9.30
2019-02-19T22:12:35.993Z,9.30
2019-02-19T22:15:05.873Z,9.30
2019-02-19T22:17:35.357Z,9.20
2019-02-19T22:20:06.166Z,9.30
2019-02-19T22:22:35.588Z,9.20
2019-02-19T22:25:05.321Z,9.20
2019-02-19T22:27:34.852Z,9.20
2019-02-19T22:30:04.643Z,9.20
2019-02-19T22:32:34.075Z,9.20
2019-02-19T22:35:03.664Z,9.20
2019-02-19T22:37:33.072Z,9.10
2019-02-19T22:40:02.522Z,9.10
2019-02-19T22:42:31.964Z,9.10
2019-02-19T22:45:01.434Z,9.10
2019-02-19T22:47:30.845Z,9.10
2019-02-19T22:50:00.310Z,9.10
2019-02-19T22:52:29.742Z,9.10
2019-02-19T22:55:21.196Z,9.00
2019-02-19T22:57:50.622Z,9.00
2019-02-19T23:00:40.627Z,9.00
2019-02-19T23:03:10.052Z,9.00
2019-02-19T23:05:39.538Z,9.00
2019-02-19T23:08:08.963Z,9.00
2019-02-19T23:10:38.457Z,9.00
2019-02-19T23:13:07.906Z,8.90
2019-02-19T23:15:37.360Z,8.90
2019-02-19T23:18:06.785Z,8.90
2019-02-19T23:20:36.234Z,8.90
2019-02-19T23:23:05.681Z,8.90
2019-02-19T23:25:35.137Z,8.90
2019-02-19T23:28:04.552Z,8.90
2019-02-19T23:30:33.977Z,8.80
2019-02-19T23:33:03.440Z,8.80
2019-02-19T23:35:40.489Z,8.80
2019-02-19T23:38:09.955Z,8.80
2019-02-19T23:40:39.465Z,8.80
2019-02-19T23:43:08.936Z,8.80
2019-02-19T23:45:38.457Z,8.80
2019-02-19T23:48:07.906Z,8.80
2019-02-19T23:50:37.345Z,8.70
2019-02-19T23:53:06.841Z,8.70
2019-02-19T23:55:36.270Z,8.70
2019-02-19T23:58:05.724Z,8.70
